Time;durP1;ratioP1;P1;durP2;ratioP2;P2;SDS_P1;SDS_P2;PMS_P1;PMS_P2;Temp;Humidity;BMP_temperature;BMP_pressure;BME280_temperature;BME280_humidity;BME280_pressure;Samples;Min_cycle;Max_cycle;Signal;HPM_P1;HPM_P2
2023/05/24 00:01:56;;;;;;;10.60;3.40;;;;;;;10.35;68.47;101841.75;4975189;28;20064;-63
2023/05/24 00:04:23;;;;;;;12.60;3.58;;;;;;;10.32;68.59;101849.47;4973102;28;20463;-63
2023/05/24 00:06:50;;;;;;;13.48;4.03;;;;;;;10.30;68.43;101848.59;4976287;28;20030;-63
2023/05/24 00:09:15;;;;;;;18.08;3.85;;;;;;;10.28;69.19;101843.41;4974850;28;20778;-64
2023/05/24 00:11:40;;;;;;;13.05;3.38;;;;;;;10.21;69.08;101847.63;4975278;28;20038;-64
2023/05/24 00:14:06;;;;;;;8.85;3.30;;;;;;;10.20;68.82;101847.63;4978543;28;20043;-65
2023/05/24 00:16:31;;;;;;;13.68;3.85;;;;;;;10.14;69.22;101848.44;4977862;28;20461;-65
2023/05/24 00:18:58;;;;;;;13.60;3.83;;;;;;;10.11;69.21;101848.41;4977545;28;20034;-65
2023/05/24 00:21:23;;;;;;;15.88;3.05;;;;;;;10.08;69.24;101845.78;4977094;28;20038;-65
2023/05/24 00:23:50;;;;;;;11.25;3.20;;;;;;;10.04;68.84;101856.06;4981885;28;20385;-65
2023/05/24 00:26:16;;;;;;;19.17;3.78;;;;;;;9.99;69.59;101856.03;4977820;28;20046;-64
2023/05/24 00:28:41;;;;;;;10.48;2.78;;;;;;;9.93;69.80;101855.06;4980890;28;20454;-64
2023/05/24 00:31:07;;;;;;;8.55;2.60;;;;;;;9.88;70.56;101851.59;4975204;28;20034;-64
2023/05/24 00:33:32;;;;;;;12.00;3.72;;;;;;;9.84;70.35;101862.72;4979343;28;20038;-65
2023/05/24 00:35:58;;;;;;;12.18;3.10;;;;;;;9.80;70.44;101859.22;4974383;28;20825;-64
2023/05/24 00:38:25;;;;;;;14.65;3.35;;;;;;;9.75;70.06;101860.88;4975502;28;20046;-64
2023/05/24 00:40:51;;;;;;;11.98;3.00;;;;;;;9.72;70.77;101859.97;4978186;28;20153;-64
2023/05/24 00:43:17;;;;;;;9.95;2.90;;;;;;;9.68;70.96;101859.06;4978931;28;20034;-64
2023/05/24 00:45:43;;;;;;;12.77;3.35;;;;;;;9.67;70.44;101854.78;4972521;28;20057;-64
2023/05/24 00:48:09;;;;;;;13.55;2.78;;;;;;;9.61;70.09;101854.69;4974774;28;20137;-64
2023/05/24 00:50:36;;;;;;;15.18;3.40;;;;;;;9.60;71.07;101855.53;4979152;28;20034;-64
2023/05/24 00:53:03;;;;;;;10.60;2.97;;;;;;;9.65;70.65;101843.53;4984003;28;20038;-64
2023/05/24 00:55:29;;;;;;;15.52;3.15;;;;;;;9.58;70.90;101840.00;4982689;28;20714;-64
2023/05/24 00:57:56;;;;;;;12.52;3.55;;;;;;;9.53;71.56;101844.22;4978197;28;20109;-64
2023/05/24 01:00:22;;;;;;;12.23;3.63;;;;;;;9.48;71.60;101850.16;4991391;28;20038;-64
2023/05/24 01:02:49;;;;;;;11.27;3.28;;;;;;;9.43;71.84;101844.97;4976600;28;20042;-64
2023/05/24 01:05:16;;;;;;;13.25;3.42;;;;;;;9.40;72.19;101849.22;4981912;28;20125;-64
2023/05/24 01:08:01;;;;;;;12.80;3.40;;;;;;;9.35;71.28;101843.09;4983348;28;20500;-64
2023/05/24 01:10:42;;;;;;;;;;;;;;;9.32;72.23;101838.75;4983648;28;20117;-64
2023/05/24 01:13:20;;;;;;;7.65;3.30;;;;;;;9.27;72.14;101839.56;4983041;28;19921;-64
2023/05/24 01:16:09;;;;;;;16.08;3.40;;;;;;;9.29;71.97;101830.97;4975092;28;20065;-64
2023/05/24 01:18:43;;;;;;;8.90;2.30;;;;;;;9.27;71.46;101835.25;4980608;28;20042;-64
2023/05/24 01:21:11;;;;;;;9.60;2.72;;;;;;;9.29;71.92;101832.72;4983991;28;20042;-65
2023/05/24 01:23:51;;;;;;;11.68;3.00;;;;;;;9.22;71.39;101842.09;4980200;28;20161;-64
2023/05/24 01:26:38;;;;;;;15.38;2.88;;;;;;;9.25;71.46;101826.66;4975777;28;20038;-64
2023/05/24 01:29:04;;;;;;;12.55;3.10;;;;;;;9.26;70.96;101818.03;4978416;28;20041;-64
2023/05/24 01:31:29;;;;;;;10.45;2.58;;;;;;;9.26;70.93;101815.47;4986729;28;20088;-64
2023/05/24 01:33:54;;;;;;;9.75;2.38;;;;;;;9.25;70.69;101812.88;4979285;28;20041;-64
2023/05/24 01:36:20;;;;;;;12.20;2.78;;;;;;;9.22;71.00;101823.16;4984280;28;20042;-64
2023/05/24 01:38:46;;;;;;;14.52;3.55;;;;;;;9.15;71.15;101817.03;4981404;28;20049;-64
2023/05/24 01:41:17;;;;;;;6.50;2.58;;;;;;;9.08;71.73;101826.38;5009684;28;20038;-64
2023/05/24 01:43:51;;;;;;;9.43;2.35;;;;;;;9.05;72.04;101822.94;4980904;28;20039;-63
2023/05/24 01:46:46;;;;;;;12.80;3.07;;;;;;;9.02;71.61;101818.56;4975079;28;20589;-64
2023/05/24 01:49:23;;;;;;;14.32;3.67;;;;;;;9.00;72.11;101820.25;4980054;28;20291;-64
2023/05/24 01:51:55;;;;;;;14.65;2.67;;;;;;;8.98;71.87;101816.81;4979800;28;20426;-64
2023/05/24 01:54:24;;;;;;;10.23;3.10;;;;;;;8.95;71.80;101828.78;4985605;28;20065;-64
2023/05/24 01:56:52;;;;;;;15.57;2.88;;;;;;;8.90;72.91;101833.00;4979342;28;20046;-64
2023/05/24 01:59:21;;;;;;;11.20;2.63;;;;;;;8.84;72.71;101830.34;4977909;28;20042;-64
2023/05/24 02:01:47;;;;;;;10.80;3.13;;;;;;;8.80;73.12;101828.53;4981659;28;20043;-64
2023/05/24 02:04:12;;;;;;;10.90;2.97;;;;;;;8.75;73.61;101831.06;4984330;28;20030;-64
2023/05/24 02:06:37;;;;;;;10.40;2.42;;;;;;;8.74;73.10;101828.44;4983549;28;20022;-64
2023/05/24 02:09:03;;;;;;;9.98;3.08;;;;;;;8.70;74.00;101824.94;4983257;28;20547;-64
2023/05/24 02:11:28;;;;;;;8.20;2.78;;;;;;;8.69;73.99;101830.09;4978140;28;21771;-64
2023/05/24 02:13:54;;;;;;;10.25;3.13;;;;;;;8.65;73.80;101823.13;4982165;28;20092;-64
2023/05/24 02:16:19;;;;;;;12.88;2.97;;;;;;;8.63;74.41;101822.25;4977049;28;20049;-64
2023/05/24 02:18:45;;;;;;;10.25;2.72;;;;;;;8.60;74.25;101815.34;5011428;28;20030;-64
2023/05/24 02:21:11;;;;;;;10.38;3.08;;;;;;;8.58;74.69;101817.00;4982253;28;20035;-64
2023/05/24 02:23:37;;;;;;;14.80;2.95;;;;;;;8.56;74.73;101817.00;4987644;28;20066;-64
2023/05/24 02:26:02;;;;;;;9.55;2.78;;;;;;;8.54;74.08;101820.41;4984544;28;20084;-65
2023/05/24 02:28:31;;;;;;;14.35;2.70;;;;;;;8.48;75.05;101823.75;4983301;28;20046;-64
2023/05/24 02:30:56;;;;;;;7.32;2.42;;;;;;;8.43;74.99;101825.34;4980103;28;20634;-64
2023/05/24 02:33:24;;;;;;;9.55;2.75;;;;;;;8.38;75.98;101814.09;4979993;28;20065;-64
2023/05/24 02:35:50;;;;;;;8.55;2.63;;;;;;;8.34;75.98;101816.59;4981824;28;20046;-64
2023/05/24 02:38:15;;;;;;;8.85;2.83;;;;;;;8.30;76.25;101823.41;4978020;28;20042;-64
2023/05/24 02:40:40;;;;;;;10.38;2.65;;;;;;;8.28;75.98;101819.94;4983315;28;20591;-64
2023/05/24 02:43:06;;;;;;;10.20;2.90;;;;;;;8.24;76.46;101830.16;4987394;28;20038;-65
2023/05/24 02:45:31;;;;;;;15.82;3.42;;;;;;;8.26;76.04;101824.19;4982019;28;20109;-64
2023/05/24 02:47:56;;;;;;;15.23;4.25;;;;;;;8.26;76.46;101831.06;4982218;28;20042;-64
2023/05/24 02:50:22;;;;;;;9.95;3.30;;;;;;;8.25;76.58;101824.19;4982842;28;20081;-64
2023/05/24 02:52:47;;;;;;;13.18;3.15;;;;;;;8.21;76.36;101823.25;4984640;28;20448;-64
2023/05/24 02:55:13;;;;;;;13.60;2.67;;;;;;;8.19;76.80;101824.91;4983685;28;20034;-65
2023/05/24 02:57:38;;;;;;;11.80;3.25;;;;;;;8.21;76.27;101819.81;4988512;28;20692;-64
2023/05/24 03:00:08;;;;;;;9.73;2.72;;;;;;;8.20;76.92;101820.63;4995989;28;20047;-64
2023/05/24 03:02:37;;;;;;;13.02;3.38;;;;;;;8.17;76.65;101818.88;4978061;28;20042;-64
2023/05/24 03:05:02;;;;;;;11.52;3.03;;;;;;;8.17;76.80;101813.72;4979953;28;20050;-64
2023/05/24 03:07:27;;;;;;;14.10;3.45;;;;;;;8.18;77.08;101812.91;4980624;28;20091;-64
2023/05/24 03:09:53;;;;;;;14.57;3.20;;;;;;;8.18;77.19;101802.59;4976536;28;20026;-64
2023/05/24 03:12:18;;;;;;;11.50;3.67;;;;;;;8.16;76.71;101798.25;4976123;28;20046;-64
2023/05/24 03:14:43;;;;;;;13.27;3.28;;;;;;;8.14;76.92;101810.22;4976265;28;20115;-64
2023/05/24 03:17:09;;;;;;;8.77;2.85;;;;;;;8.12;76.85;101807.63;4978171;28;20045;-64
2023/05/24 03:19:34;;;;;;;8.18;2.67;;;;;;;8.12;76.89;101793.88;4978305;28;20848;-64
2023/05/24 03:22:00;;;;;;;10.38;3.45;;;;;;;8.10;77.33;101801.56;4977545;28;20439;-64
2023/05/24 03:24:25;;;;;;;8.23;2.88;;;;;;;8.09;77.52;101797.28;4974523;28;20038;-63
2023/05/24 03:26:51;;;;;;;9.35;2.88;;;;;;;8.07;77.68;101796.38;4981309;28;20089;-64
2023/05/24 03:29:16;;;;;;;8.55;2.42;;;;;;;8.04;77.91;101801.44;4979866;28;20045;-64
2023/05/24 03:31:42;;;;;;;15.50;3.92;;;;;;;7.99;78.06;101803.97;4979411;28;20096;-64
2023/05/24 03:34:07;;;;;;;11.77;2.40;;;;;;;7.93;78.38;101803.84;4986470;28;20092;-64
2023/05/24 03:36:32;;;;;;;8.80;2.53;;;;;;;7.90;78.36;101813.22;4981557;28;20026;-64
2023/05/24 03:38:58;;;;;;;15.23;3.53;;;;;;;7.90;78.82;101813.22;4977892;28;20038;-64
2023/05/24 03:41:23;;;;;;;15.85;3.35;;;;;;;7.90;79.10;101816.66;4977890;28;20038;-65
2023/05/24 03:43:50;;;;;;;11.13;3.20;;;;;;;7.90;79.24;101811.50;4978878;28;20797;-64
2023/05/24 03:46:15;;;;;;;11.95;3.22;;;;;;;7.88;79.54;101822.63;4978772;28;20049;-64
2023/05/24 03:48:41;;;;;;;16.08;3.42;;;;;;;7.89;79.95;101826.94;4980342;28;21627;-64
2023/05/24 03:51:08;;;;;;;11.63;4.05;;;;;;;7.92;80.61;101821.84;4980820;28;20401;-64
2023/05/24 03:53:33;;;;;;;15.75;4.20;;;;;;;7.96;80.13;101824.50;4981581;28;20160;-64
2023/05/24 03:55:59;;;;;;;18.35;4.13;;;;;;;7.99;80.95;101823.69;4981731;28;20306;-64
2023/05/24 03:58:24;;;;;;;14.23;3.65;;;;;;;8.00;80.97;101813.44;4974224;28;20591;-64
2023/05/24 04:00:50;;;;;;;7.75;3.50;;;;;;;8.06;80.54;101814.38;4979804;28;20030;-64
2023/05/24 04:03:18;;;;;;;11.93;3.58;;;;;;;8.09;80.90;101811.84;4979105;28;20610;-64
2023/05/24 04:05:44;;;;;;;16.70;4.30;;;;;;;8.11;80.90;101813.63;4975219;28;20574;-64
2023/05/24 04:08:09;;;;;;;9.85;3.72;;;;;;;8.11;80.45;101808.47;4976159;28;20042;-64
2023/05/24 04:10:35;;;;;;;15.60;3.83;;;;;;;8.17;80.58;101806.00;4974025;28;20084;-64
2023/05/24 04:13:00;;;;;;;12.90;4.50;;;;;;;8.21;80.85;101818.09;4980151;28;20494;-64
2023/05/24 04:15:26;;;;;;;16.88;4.95;;;;;;;8.23;81.12;101818.13;4972721;28;20038;-64
2023/05/24 04:17:54;;;;;;;16.92;4.22;;;;;;;8.27;80.85;101825.06;4981995;28;20054;-64
2023/05/24 04:20:24;;;;;;;13.70;4.00;;;;;;;8.32;80.58;101826.88;4985346;28;20030;-64
2023/05/24 04:22:53;;;;;;;11.70;4.57;;;;;;;8.35;80.99;101832.09;4979679;28;20042;-64
2023/05/24 04:25:19;;;;;;;17.30;4.43;;;;;;;8.37;80.51;101838.13;4980434;28;20660;-64
2023/05/24 04:27:47;;;;;;;17.60;4.95;;;;;;;8.42;80.86;101835.66;4977722;28;20041;-65
2023/05/24 04:30:14;;;;;;;16.25;4.63;;;;;;;8.45;80.72;101840.84;4980843;28;20034;-64
2023/05/24 04:32:40;;;;;;;12.25;4.57;;;;;;;8.46;80.32;101843.44;4984288;28;20065;-65
2023/05/24 04:35:06;;;;;;;16.40;3.95;;;;;;;8.52;80.41;101843.53;4977445;28;20038;-64
2023/05/24 04:37:32;;;;;;;13.82;3.70;;;;;;;8.56;80.13;101839.31;4979603;28;20050;-64
2023/05/24 04:39:57;;;;;;;14.48;3.97;;;;;;;8.61;79.83;101840.25;4976224;28;20096;-65
2023/05/24 04:42:23;;;;;;;15.40;3.95;;;;;;;8.64;80.08;101840.31;4978763;28;20038;-64
2023/05/24 04:44:48;;;;;;;11.77;4.10;;;;;;;8.67;80.43;101848.09;4980854;28;20042;-64
2023/05/24 04:47:15;;;;;;;12.77;4.20;;;;;;;8.74;80.00;101849.06;4980833;28;20041;-64
2023/05/24 04:49:40;;;;;;;14.75;4.20;;;;;;;8.79;80.41;101850.88;4983298;28;20041;-64
2023/05/24 04:52:06;;;;;;;15.48;5.15;;;;;;;8.86;79.90;101849.25;4983665;28;20392;-64
2023/05/24 04:54:32;;;;;;;15.82;4.95;;;;;;;8.92;79.82;101862.25;4983775;28;20030;-64
2023/05/24 04:56:57;;;;;;;14.65;4.18;;;;;;;8.97;79.80;101853.75;4981995;28;20057;-64
2023/05/24 04:59:23;;;;;;;12.02;4.47;;;;;;;9.04;79.44;101849.53;4982118;28;20933;-64
2023/05/24 05:01:49;;;;;;;14.18;4.00;;;;;;;9.09;78.97;101855.63;4979990;28;20073;-64
2023/05/24 05:04:14;;;;;;;13.35;4.80;;;;;;;9.16;78.72;101860.03;4989528;28;20027;-64
2023/05/24 05:06:42;;;;;;;15.38;4.57;;;;;;;9.23;78.69;101861.84;4983589;28;20026;-64
2023/05/24 05:09:09;;;;;;;14.95;4.78;;;;;;;9.33;78.95;101871.47;4982279;28;20096;-64
2023/05/24 05:11:35;;;;;;;14.57;4.53;;;;;;;9.41;77.97;101866.41;4981631;28;20049;-64
2023/05/24 05:14:01;;;;;;;18.33;5.00;;;;;;;9.48;78.24;101876.84;4980385;28;20065;-64
2023/05/24 05:16:26;;;;;;;18.02;4.60;;;;;;;9.53;78.68;101869.16;4982195;28;20281;-64
2023/05/24 05:18:51;;;;;;;19.67;4.95;;;;;;;9.60;77.87;101866.72;4982173;28;20514;-65
2023/05/24 05:21:17;;;;;;;18.63;4.85;;;;;;;9.64;76.68;101865.91;4983006;28;20038;-60
2023/05/24 05:23:43;;;;;;;12.00;4.25;;;;;;;9.72;77.21;101863.44;4978191;28;20069;-61
2023/05/24 05:26:09;;;;;;;17.58;4.95;;;;;;;9.78;76.05;101868.69;4982162;28;20117;-60
2023/05/24 05:28:34;;;;;;;14.38;4.82;;;;;;;9.71;75.97;101866.84;4981247;28;20053;-60
2023/05/24 05:31:00;;;;;;;25.40;5.75;;;;;;;9.78;76.52;101860.94;4984711;28;20510;-61
2023/05/24 05:33:25;;;;;;;18.38;4.78;;;;;;;9.79;75.88;101870.41;4980237;28;20034;-60
2023/05/24 05:35:50;;;;;;;11.05;4.60;;;;;;;9.84;76.55;101878.22;4979961;28;20550;-60
2023/05/24 05:38:16;;;;;;;15.82;4.20;;;;;;;9.83;76.62;101874.75;4982202;28;20443;-60
2023/05/24 05:40:41;;;;;;;14.20;4.47;;;;;;;9.89;76.27;101876.53;4981239;28;20050;-60
2023/05/24 05:43:08;;;;;;;16.15;4.43;;;;;;;9.87;76.36;101863.63;4981461;28;20030;-61
2023/05/24 05:45:33;;;;;;;18.40;4.72;;;;;;;9.95;76.27;101861.13;4979664;28;20090;-60
2023/05/24 05:47:59;;;;;;;15.48;4.78;;;;;;;10.05;76.02;101874.16;4971990;28;20121;-60
2023/05/24 05:50:24;;;;;;;14.35;4.28;;;;;;;10.13;76.41;101875.13;4975457;28;20038;-60
2023/05/24 05:52:49;;;;;;;17.83;5.07;;;;;;;10.08;75.58;101868.16;4970880;28;20097;-60
2023/05/24 05:55:15;;;;;;;20.52;6.22;;;;;;;10.11;75.60;101871.66;4967125;28;20034;-60
2023/05/24 05:57:40;;;;;;;17.70;5.20;;;;;;;10.15;75.46;101870.81;4978490;28;20117;-61
2023/05/24 06:00:07;;;;;;;19.02;6.22;;;;;;;10.18;75.50;101868.28;4976343;28;20157;-60
2023/05/24 06:02:32;;;;;;;21.20;5.63;;;;;;;10.23;75.05;101879.53;4984477;28;20041;-60
2023/05/24 06:04:58;;;;;;;17.60;5.20;;;;;;;10.29;75.20;101868.41;4981596;28;20753;-60
2023/05/24 06:07:24;;;;;;;19.05;5.65;;;;;;;10.41;76.00;101883.16;4980863;28;20037;-61
2023/05/24 06:09:49;;;;;;;19.63;5.38;;;;;;;10.54;76.14;101879.81;4975789;28;20034;-60
2023/05/24 06:12:14;;;;;;;20.98;7.07;;;;;;;10.59;76.03;101879.03;4977253;28;20038;-60
2023/05/24 06:14:40;;;;;;;20.75;6.15;;;;;;;10.58;75.14;101872.13;4976314;28;20038;-61
2023/05/24 06:17:05;;;;;;;25.88;5.57;;;;;;;10.56;75.99;101896.25;4978839;28;20519;-60
2023/05/24 06:19:31;;;;;;;24.45;6.55;;;;;;;10.58;75.38;101873.84;4973993;28;20057;-61
2023/05/24 06:21:57;;;;;;;27.60;7.97;;;;;;;10.58;75.26;101866.09;4981095;28;20030;-61
2023/05/24 06:24:23;;;;;;;26.67;6.30;;;;;;;10.55;76.16;101871.22;4977167;28;20077;-60
2023/05/24 06:26:50;;;;;;;21.42;5.75;;;;;;;10.67;75.99;101863.59;4977475;28;20061;-61
2023/05/24 06:29:15;;;;;;;21.92;6.38;;;;;;;10.79;75.17;101850.75;4976462;28;20084;-60
2023/05/24 06:31:42;;;;;;;21.48;5.82;;;;;;;10.96;75.12;101831.06;4981131;28;20049;-61
2023/05/24 06:34:07;;;;;;;24.65;6.88;;;;;;;11.06;73.30;101817.34;4977239;28;20105;-60
2023/05/24 06:36:34;;;;;;;23.05;7.43;;;;;;;11.09;72.80;101803.56;4981959;28;20109;-61
2023/05/24 06:39:00;;;;;;;34.13;6.50;;;;;;;11.05;71.70;101786.25;4976497;28;20065;-61
2023/05/24 06:41:26;;;;;;;23.90;6.20;;;;;;;11.15;71.59;101786.34;4977560;28;20158;-61
2023/05/24 06:43:52;;;;;;;23.83;6.57;;;;;;;11.29;70.61;101781.22;4983369;28;20046;-61
2023/05/24 06:46:17;;;;;;;23.95;6.43;;;;;;;11.43;70.26;101782.19;4980433;28;20524;-61
2023/05/24 06:48:42;;;;;;;21.55;6.25;;;;;;;11.49;69.99;101781.34;4978941;28;20034;-62
2023/05/24 06:51:08;;;;;;;26.73;6.85;;;;;;;11.60;69.90;101777.09;4983329;28;20038;-62
2023/05/24 06:53:33;;;;;;;25.92;6.40;;;;;;;11.45;69.61;101789.97;4975115;28;20065;-62
2023/05/24 06:55:58;;;;;;;20.65;6.88;;;;;;;11.50;70.44;101799.50;4977138;28;20039;-62
2023/05/24 06:58:24;;;;;;;24.33;7.00;;;;;;;11.70;71.07;101835.81;4971486;28;20051;-62
2023/05/24 07:00:49;;;;;;;23.88;6.25;;;;;;;11.77;70.09;101816.84;4976155;28;20124;-62
2023/05/24 07:03:15;;;;;;;26.17;6.90;;;;;;;11.84;70.14;101834.16;4975537;28;20078;-62
2023/05/24 07:05:40;;;;;;;24.27;6.60;;;;;;;11.73;69.49;101802.16;4982342;28;20570;-62
2023/05/24 07:08:06;;;;;;;23.60;6.45;;;;;;;11.77;68.73;101797.00;4982801;28;20104;-62
2023/05/24 07:10:31;;;;;;;26.38;6.00;;;;;;;11.80;69.01;101803.91;4979444;28;20038;-62
2023/05/24 07:12:56;;;;;;;26.45;6.75;;;;;;;11.88;69.73;101820.34;4981761;28;20041;-62
2023/05/24 07:15:22;;;;;;;26.42;5.30;;;;;;;12.09;68.13;101793.63;4978515;28;20060;-62
2023/05/24 07:17:47;;;;;;;21.65;5.38;;;;;;;12.12;66.22;101752.16;4982935;28;20043;-63
2023/05/24 07:20:13;;;;;;;21.52;5.45;;;;;;;12.28;66.31;101761.69;4977145;28;20034;-64
2023/05/24 07:22:39;;;;;;;26.15;6.03;;;;;;;12.52;65.29;101740.94;4978956;28;20077;-62
2023/05/24 07:25:05;;;;;;;21.00;5.38;;;;;;;12.52;63.77;101727.09;4982445;28;20037;-64
2023/05/24 07:27:30;;;;;;;25.98;5.45;;;;;;;12.75;63.56;101731.41;4982529;28;20038;-63
2023/05/24 07:29:56;;;;;;;14.73;4.13;;;;;;;12.82;61.93;101703.72;4979344;28;20038;-65
2023/05/24 07:32:21;;;;;;;14.07;4.65;;;;;;;12.77;60.04;101695.94;4982970;28;20085;-69
2023/05/24 07:34:47;;;;;;;19.38;5.10;;;;;;;12.80;59.83;101695.03;4975824;28;20100;-65
2023/05/24 07:37:12;;;;;;;16.45;4.93;;;;;;;12.96;59.70;101699.34;4977404;28;20045;-66
2023/05/24 07:39:38;;;;;;;13.50;4.90;;;;;;;12.92;58.97;101697.59;4979253;28;20043;-68
2023/05/24 07:42:04;;;;;;;12.63;4.30;;;;;;;13.05;60.27;101727.91;4976074;28;20034;-64
2023/05/24 07:44:29;;;;;;;18.77;4.35;;;;;;;13.34;57.81;101681.91;4980498;28;20080;-63
2023/05/24 07:46:55;;;;;;;15.38;4.55;;;;;;;13.38;58.13;101701.81;4972936;28;20038;-65
2023/05/24 07:49:21;;;;;;;14.27;3.95;;;;;;;13.55;56.49;101670.53;4978460;28;20778;-63
2023/05/24 07:51:47;;;;;;;15.27;4.70;;;;;;;13.90;58.03;101704.94;4982377;28;20063;-63
2023/05/24 07:54:13;;;;;;;16.98;4.43;;;;;;;13.67;56.28;101677.38;4972555;28;20046;-64
2023/05/24 07:56:40;;;;;;;26.23;4.70;;;;;;;13.46;56.34;101674.03;4978400;28;20057;-64
2023/05/24 07:59:06;;;;;;;15.82;4.15;;;;;;;13.47;57.51;101708.69;4974143;28;20049;-63
2023/05/24 08:01:33;;;;;;;17.20;4.53;;;;;;;13.40;57.26;101699.19;4978238;28;20093;-63
2023/05/24 08:04:00;;;;;;;18.15;4.60;;;;;;;13.48;57.22;101695.66;4981306;28;20030;-64
2023/05/24 08:06:26;;;;;;;17.98;4.53;;;;;;;13.52;56.93;101688.72;4977552;28;20034;-64
2023/05/24 08:08:52;;;;;;;16.13;4.60;;;;;;;13.43;57.21;101700.03;4979163;28;20049;-63
2023/05/24 08:11:17;;;;;;;13.95;3.67;;;;;;;13.41;58.14;101708.72;4976578;28;20046;-63
2023/05/24 08:13:43;;;;;;;23.48;4.75;;;;;;;13.38;57.82;101709.59;4978218;28;20080;-64
2023/05/24 08:16:09;;;;;;;14.10;3.90;;;;;;;13.20;57.90;101711.41;4976195;28;20911;-63
2023/05/24 08:18:34;;;;;;;19.88;4.03;;;;;;;13.00;59.11;101740.00;4971814;28;20113;-63
2023/05/24 08:20:59;;;;;;;19.70;4.15;;;;;;;12.91;59.86;101747.81;4983185;28;20033;-63
2023/05/24 08:23:25;;;;;;;15.45;3.95;;;;;;;12.82;60.71;101764.22;4972646;28;20043;-64
2023/05/24 08:25:52;;;;;;;20.73;5.50;;;;;;;12.90;60.02;101756.44;4968963;28;20038;-63
2023/05/24 08:28:17;;;;;;;19.13;4.70;;;;;;;13.10;59.65;101746.03;4976691;28;20048;-63
2023/05/24 08:30:43;;;;;;;17.40;4.63;;;;;;;13.39;59.38;101737.28;4978647;28;20539;-64
2023/05/24 08:33:08;;;;;;;16.23;4.82;;;;;;;13.52;58.38;101718.16;4979398;28;20049;-63
2023/05/24 08:35:34;;;;;;;17.70;4.22;;;;;;;13.94;57.31;101701.44;4976287;28;20164;-63
2023/05/24 08:38:00;;;;;;;16.30;4.47;;;;;;;14.05;57.39;101704.81;4977415;28;20337;-63
2023/05/24 08:40:26;;;;;;;16.70;4.43;;;;;;;14.23;54.97;101666.53;4978126;28;20982;-63
2023/05/24 08:42:51;;;;;;;16.35;4.75;;;;;;;14.19;52.85;101637.09;4985936;28;20050;-63
2023/05/24 08:45:17;;;;;;;15.00;4.75;;;;;;;14.12;53.86;101648.44;4975271;28;20555;-63
2023/05/24 08:47:43;;;;;;;15.18;4.63;;;;;;;13.94;53.90;101659.88;4977897;28;20046;-63
2023/05/24 08:50:10;;;;;;;20.73;5.15;;;;;;;13.89;54.36;101671.19;4977917;28;20382;-63
2023/05/24 08:52:35;;;;;;;14.15;3.92;;;;;;;13.66;55.30;101692.09;4974244;28;20030;-63
2023/05/24 08:55:03;;;;;;;14.80;4.28;;;;;;;13.70;56.03;101716.34;4982387;28;20065;-64
2023/05/24 08:57:31;;;;;;;17.00;5.07;;;;;;;13.63;56.28;101725.03;4976846;28;20034;-63
2023/05/24 08:59:57;;;;;;;21.80;5.55;;;;;;;13.62;56.29;101721.59;4974846;28;20038;-64
2023/05/24 09:02:23;;;;;;;16.98;4.65;;;;;;;13.76;56.23;101722.38;4980790;28;20097;-63
2023/05/24 09:04:51;;;;;;;13.82;4.30;;;;;;;13.90;56.33;101714.47;4978587;28;20085;-64
2023/05/24 09:07:23;;;;;;;18.45;4.60;;;;;;;14.03;56.57;101714.38;4978862;28;20023;-63
2023/05/24 09:09:57;;;;;;;16.13;4.45;;;;;;;14.25;54.88;101665.66;4977239;28;20204;-64
2023/05/24 09:12:25;;;;;;;12.43;4.20;;;;;;;14.39;55.31;101683.78;4972754;28;20044;-63
2023/05/24 09:14:51;;;;;;;19.77;4.63;;;;;;;14.57;54.92;101671.44;4995488;28;20839;-63
2023/05/24 09:17:17;;;;;;;17.83;4.55;;;;;;;14.58;54.21;101647.16;4971772;28;20042;-63
2023/05/24 09:19:46;;;;;;;16.48;5.03;;;;;;;14.68;54.88;101670.47;4966346;28;20044;-64
2023/05/24 09:22:13;;;;;;;17.13;5.15;;;;;;;14.57;55.20;101671.44;4968717;28;20030;-63
2023/05/24 09:24:42;;;;;;;16.58;4.55;;;;;;;14.84;54.39;101665.06;4976000;28;20105;-63
2023/05/24 09:27:08;;;;;;;18.90;4.53;;;;;;;14.48;55.10;101678.50;4975737;28;20768;-64
2023/05/24 09:29:36;;;;;;;16.30;4.60;;;;;;;14.78;54.79;101674.72;4973690;28;20049;-64
2023/05/24 09:32:03;;;;;;;19.45;5.03;;;;;;;14.64;54.15;101656.63;4989269;28;20049;-63
2023/05/24 09:34:36;;;;;;;17.88;4.05;;;;;;;14.51;55.17;101670.66;4970648;28;20031;-63
2023/05/24 09:37:02;;;;;;;14.82;4.57;;;;;;;14.60;53.77;101657.56;4968264;28;20039;-63
2023/05/24 09:39:28;;;;;;;16.90;5.15;;;;;;;14.82;54.47;101668.56;4977551;28;20037;-64
2023/05/24 09:41:55;;;;;;;14.45;4.15;;;;;;;14.78;52.95;101636.50;4972579;28;20042;-63
2023/05/24 09:44:25;;;;;;;16.98;5.22;;;;;;;14.69;52.41;101623.63;4977298;28;20038;-63
2023/05/24 09:46:50;;;;;;;13.63;4.40;;;;;;;14.74;52.85;101640.03;4976546;28;20061;-64
2023/05/24 09:49:16;;;;;;;13.85;4.90;;;;;;;15.25;52.52;101632.44;4981885;28;20849;-64
2023/05/24 09:51:41;;;;;;;11.60;4.25;;;;;;;15.16;50.82;101604.78;4982187;28;20045;-63
2023/05/24 09:54:08;;;;;;;12.65;4.20;;;;;;;15.23;51.22;101618.59;4977794;28;20038;-64
2023/05/24 09:56:34;;;;;;;16.33;4.40;;;;;;;15.37;51.11;101607.09;4977447;28;20137;-63
2023/05/24 09:59:06;;;;;;;12.38;3.58;;;;;;;15.37;49.66;101575.84;4981757;28;20049;-63
2023/05/24 10:01:33;;;;;;;11.50;3.80;;;;;;;15.09;49.92;101577.97;4982316;28;20042;-63
2023/05/24 10:04:01;;;;;;;15.70;3.80;;;;;;;15.18;50.74;101611.69;4978838;28;20699;-63
2023/05/24 10:06:28;;;;;;;12.07;4.15;;;;;;;15.16;50.63;101596.97;4976901;28;20042;-64
2023/05/24 10:08:54;;;;;;;12.27;4.05;;;;;;;15.46;49.22;101580.03;4972147;28;20045;-64
2023/05/24 10:11:20;;;;;;;19.00;4.05;;;;;;;15.60;49.25;101578.06;4977093;28;20535;-61
2023/05/24 10:13:47;;;;;;;15.73;4.07;;;;;;;15.46;48.26;101570.50;4976485;28;20038;-62
2023/05/24 10:16:12;;;;;;;11.18;4.38;;;;;;;15.35;48.67;101561.94;4981882;28;20030;-63
2023/05/24 10:18:37;;;;;;;17.70;5.30;;;;;;;15.49;49.06;101578.25;4979762;28;20038;-61
2023/05/24 10:21:08;;;;;;;11.55;4.22;;;;;;;15.78;48.35;101556.97;4979312;28;20050;-61
2023/05/24 10:23:36;;;;;;;14.70;4.97;;;;;;;15.86;48.35;101549.84;4976750;28;20136;-62
2023/05/24 10:26:08;;;;;;;15.10;4.75;;;;;;;15.82;49.12;101568.19;4977390;28;20042;-62
2023/05/24 10:28:38;;;;;;;18.48;5.10;;;;;;;16.17;48.27;101556.25;4974713;28;20149;-62
2023/05/24 10:31:11;;;;;;;12.18;4.65;;;;;;;16.41;48.24;101572.31;4975097;28;20066;-62
2023/05/24 10:33:39;;;;;;;17.40;5.22;;;;;;;16.64;46.16;101537.03;4979360;28;20132;-62
2023/05/24 10:36:08;;;;;;;13.68;4.70;;;;;;;16.74;46.70;101551.59;4975202;28;20527;-64
2023/05/24 10:38:36;;;;;;;16.88;4.90;;;;;;;16.80;46.00;101537.63;4979879;28;20081;-62
2023/05/24 10:41:01;;;;;;;17.42;5.68;;;;;;;16.78;46.17;101544.59;4972952;28;20038;-61
2023/05/24 10:43:26;;;;;;;15.00;5.15;;;;;;;16.90;46.20;101556.53;4980924;28;20579;-62
2023/05/24 10:45:52;;;;;;;14.25;5.20;;;;;;;16.86;45.82;101542.66;4980231;28;20060;-62
2023/05/24 10:48:31;;;;;;;16.20;4.95;;;;;;;16.65;46.11;101553.56;4976440;28;20030;-62
2023/05/24 10:51:00;;;;;;;12.10;4.88;;;;;;;16.81;45.98;101555.84;4977388;28;20092;-62
2023/05/24 10:53:26;;;;;;;17.50;5.72;;;;;;;16.52;47.22;101560.78;4978071;28;20095;-62
2023/05/24 10:55:59;;;;;;;17.73;5.75;;;;;;;16.12;47.29;101576.31;4980382;28;20027;-61
2023/05/24 10:58:57;;;;;;;16.40;5.18;;;;;;;16.33;47.15;101562.88;4980668;28;20030;-62
2023/05/24 11:01:31;;;;;;;17.65;5.68;;;;;;;16.31;47.00;101576.84;4980682;28;21107;-62
2023/05/24 11:04:06;;;;;;;17.17;6.00;;;;;;;16.27;48.82;101594.31;4977249;28;20050;-62
2023/05/24 11:07:00;;;;;;;17.40;5.28;;;;;;;16.50;47.12;101566.94;4978095;28;20162;-63
2023/05/24 11:09:26;;;;;;;14.50;5.00;;;;;;;17.17;47.29;101563.75;4981569;28;20043;-62
2023/05/24 11:12:16;;;;;;;12.63;5.55;;;;;;;17.60;45.53;101530.47;4977234;28;20038;-62
2023/05/24 11:14:48;;;;;;;13.52;6.35;;;;;;;17.31;45.89;101540.78;4977869;28;20041;-62
2023/05/24 11:17:13;;;;;;;15.02;6.30;;;;;;;16.46;47.74;101573.09;4978708;28;20046;-62
2023/05/24 11:19:46;;;;;;;10.63;5.63;;;;;;;16.33;48.44;101588.09;4980928;28;20046;-62
2023/05/24 11:22:13;;;;;;;14.20;6.40;;;;;;;16.43;48.45;101594.00;4980238;28;20093;-62